EZY12ZY LTBS-EGPH
Flight info
| Callsign | EZY12ZY |
|---|---|
| Flight time | N/A |
| Altitude | 36000 |
| Route | KEKIK1C/19 KEKIK T476 YOYYO UN128 RIKSO DCT EVIVI L863 OKANA DCT RAVAK DCT BGD DCT BABIT DCT ARSIN DCT DITIS DCT LOMKI DCT VARIK DCT KATCE DCT MEBIX DCT TOPPA DCT BAZNA DCT TOWTE DCT NATEB Y96 AGPED |
| Aircraft | A320/M-SDE3FGHIRWY/LB1 |
Departure
| Time | N/A |
|---|---|
| Airport | Dalaman International Airport (LTBS) |
Arrival
| Time | 2026-04-26 18:22 |
|---|---|
| Airport | Edinburgh Airport (EGPH) |
| Time | Latitude | Longitude | Altitude | Speed | Heading |
|---|---|---|---|---|---|
| 2026-04-26 15:52 | 47.66589 | 16.63542 | 36191 ft | 406 kts | 319° |
| 2026-04-26 15:52 | 47.70999 | 16.58384 | 36193 ft | 406 kts | 318° |
| 2026-04-26 15:53 | 47.75385 | 16.53121 | 36195 ft | 405 kts | 317° |
| 2026-04-26 15:53 | 47.79762 | 16.47830 | 36195 ft | 405 kts | 317° |
| 2026-04-26 15:54 | 47.84142 | 16.42540 | 36196 ft | 405 kts | 318° |
| 2026-04-26 15:54 | 47.88522 | 16.37260 | 36197 ft | 405 kts | 318° |
| 2026-04-26 15:55 | 47.92903 | 16.31973 | 36213 ft | 405 kts | 318° |
| 2026-04-26 15:55 | 47.97281 | 16.26665 | 36203 ft | 405 kts | 318° |
| 2026-04-26 15:56 | 48.01663 | 16.21351 | 36199 ft | 406 kts | 318° |
| 2026-04-26 15:56 | 48.06039 | 16.16019 | 36201 ft | 406 kts | 318° |
| 2026-04-26 15:57 | 48.10413 | 16.10677 | 36200 ft | 406 kts | 318° |
| 2026-04-26 15:57 | 48.14787 | 16.05331 | 36203 ft | 406 kts | 318° |
| 2026-04-26 15:58 | 48.19160 | 15.99977 | 36216 ft | 406 kts | 318° |
| 2026-04-26 15:58 | 48.23529 | 15.94606 | 36220 ft | 405 kts | 317° |
| 2026-04-26 15:59 | 48.27890 | 15.89236 | 36221 ft | 405 kts | 317° |
| 2026-04-26 15:59 | 48.32236 | 15.83857 | 36218 ft | 405 kts | 317° |
| 2026-04-26 16:00 | 48.36580 | 15.78476 | 36215 ft | 404 kts | 317° |
| 2026-04-26 16:00 | 48.40920 | 15.73091 | 36215 ft | 404 kts | 317° |
| 2026-04-26 16:01 | 48.45264 | 15.67707 | 36222 ft | 404 kts | 317° |
| 2026-04-26 16:01 | 48.49582 | 15.62342 | 36213 ft | 405 kts | 317° |
| 2026-04-26 16:02 | 48.53921 | 15.56927 | 36207 ft | 405 kts | 317° |
| 2026-04-26 16:02 | 48.58268 | 15.51485 | 36215 ft | 405 kts | 317° |
| 2026-04-26 16:03 | 48.62608 | 15.46037 | 36220 ft | 405 kts | 317° |
| 2026-04-26 16:03 | 48.66923 | 15.40612 | 36213 ft | 405 kts | 317° |
| 2026-04-26 16:04 | 48.71254 | 15.35148 | 36223 ft | 405 kts | 317° |
| 2026-04-26 16:04 | 48.75586 | 15.29680 | 36233 ft | 405 kts | 317° |
| 2026-04-26 16:05 | 48.79915 | 15.24207 | 36231 ft | 405 kts | 317° |
| 2026-04-26 16:05 | 48.84242 | 15.18726 | 36232 ft | 405 kts | 317° |
| 2026-04-26 16:06 | 48.88556 | 15.13229 | 36229 ft | 404 kts | 316° |
| 2026-04-26 16:06 | 48.92368 | 15.07039 | 36235 ft | 401 kts | 308° |
| 2026-04-26 16:07 | 48.95974 | 15.00560 | 36232 ft | 401 kts | 307° |
| 2026-04-26 16:07 | 48.99559 | 14.94113 | 36222 ft | 401 kts | 307° |
| 2026-04-26 16:08 | 49.03161 | 14.87622 | 36249 ft | 401 kts | 307° |
| 2026-04-26 16:08 | 49.06748 | 14.81133 | 36241 ft | 400 kts | 307° |
| 2026-04-26 16:09 | 49.10332 | 14.74636 | 36239 ft | 400 kts | 307° |
| 2026-04-26 16:09 | 49.13903 | 14.68132 | 36238 ft | 399 kts | 307° |
| 2026-04-26 16:10 | 49.17475 | 14.61635 | 36234 ft | 399 kts | 307° |
| 2026-04-26 16:10 | 49.21041 | 14.55127 | 36236 ft | 399 kts | 307° |
| 2026-04-26 16:11 | 49.24606 | 14.48604 | 36236 ft | 399 kts | 307° |
| 2026-04-26 16:11 | 49.28166 | 14.42075 | 36236 ft | 399 kts | 307° |
| 2026-04-26 16:12 | 49.31720 | 14.35535 | 36250 ft | 399 kts | 307° |
| 2026-04-26 16:12 | 49.37039 | 14.25721 | 36249 ft | 398 kts | 307° |
| 2026-04-26 16:13 | 49.40570 | 14.19182 | 36245 ft | 398 kts | 307° |
| 2026-04-26 16:13 | 49.44073 | 14.12682 | 36245 ft | 398 kts | 307° |
| 2026-04-26 16:14 | 49.47601 | 14.06119 | 36242 ft | 397 kts | 307° |
| 2026-04-26 16:15 | 49.52874 | 13.96273 | 36234 ft | 398 kts | 307° |
| 2026-04-26 16:15 | 49.56393 | 13.89697 | 36233 ft | 398 kts | 307° |
| 2026-04-26 16:16 | 49.61660 | 13.79795 | 36252 ft | 398 kts | 306° |
| 2026-04-26 16:16 | 49.65164 | 13.73189 | 36253 ft | 398 kts | 306° |
| 2026-04-26 16:17 | 49.68668 | 13.66572 | 36255 ft | 398 kts | 306° |
| 2026-04-26 16:17 | 49.72165 | 13.59950 | 36247 ft | 398 kts | 306° |
| 2026-04-26 16:18 | 49.77417 | 13.49963 | 36247 ft | 399 kts | 306° |
| 2026-04-26 16:19 | 49.82648 | 13.40002 | 36252 ft | 400 kts | 306° |
| 2026-04-26 16:20 | 49.87900 | 13.29947 | 36250 ft | 400 kts | 306° |
| 2026-04-26 16:20 | 49.93035 | 13.19769 | 36259 ft | 398 kts | 303° |
| 2026-04-26 16:21 | 49.96180 | 13.12695 | 36261 ft | 397 kts | 302° |
| 2026-04-26 16:21 | 49.99278 | 13.05580 | 36252 ft | 397 kts | 302° |
| 2026-04-26 16:22 | 50.02410 | 12.98506 | 36247 ft | 397 kts | 302° |
| 2026-04-26 16:22 | 50.05562 | 12.91452 | 36242 ft | 397 kts | 302° |
| 2026-04-26 16:23 | 50.08716 | 12.84401 | 36237 ft | 397 kts | 303° |
| 2026-04-26 16:23 | 50.11864 | 12.77315 | 36231 ft | 398 kts | 302° |
| 2026-04-26 16:24 | 50.15012 | 12.70213 | 36231 ft | 398 kts | 302° |
| 2026-04-26 16:24 | 50.18157 | 12.63094 | 36233 ft | 398 kts | 302° |
| 2026-04-26 16:25 | 50.21285 | 12.55967 | 36251 ft | 398 kts | 302° |
| 2026-04-26 16:25 | 50.24420 | 12.48834 | 36252 ft | 398 kts | 302° |
| 2026-04-26 16:26 | 50.27020 | 12.42901 | 36247 ft | 399 kts | 302° |
| 2026-04-26 16:26 | 50.30698 | 12.34613 | 36252 ft | 400 kts | 304° |
| 2026-04-26 16:27 | 50.33536 | 12.28822 | 36257 ft | 400 kts | 306° |
| 2026-04-26 16:27 | 50.37543 | 12.20854 | 36264 ft | 401 kts | 306° |
| 2026-04-26 16:28 | 50.40407 | 12.15069 | 36260 ft | 401 kts | 306° |
| 2026-04-26 16:28 | 50.43787 | 12.08127 | 36260 ft | 401 kts | 305° |
| 2026-04-26 16:29 | 50.47164 | 12.01146 | 36257 ft | 402 kts | 305° |
| 2026-04-26 16:29 | 50.50521 | 11.94197 | 36259 ft | 402 kts | 305° |
| 2026-04-26 16:30 | 50.53904 | 11.87169 | 36263 ft | 403 kts | 305° |
| 2026-04-26 16:30 | 50.57280 | 11.80155 | 36272 ft | 403 kts | 305° |
| 2026-04-26 16:31 | 50.60655 | 11.73119 | 36273 ft | 403 kts | 305° |
| 2026-04-26 16:31 | 50.64028 | 11.66072 | 36270 ft | 403 kts | 306° |
| 2026-04-26 16:32 | 50.67398 | 11.59004 | 36269 ft | 403 kts | 305° |
| 2026-04-26 16:32 | 50.70768 | 11.51925 | 36270 ft | 404 kts | 306° |
| 2026-04-26 16:33 | 50.74138 | 11.44841 | 36267 ft | 404 kts | 305° |
| 2026-04-26 16:33 | 50.77504 | 11.37741 | 36268 ft | 404 kts | 305° |
| 2026-04-26 16:34 | 50.80858 | 11.30626 | 36269 ft | 404 kts | 305° |
| 2026-04-26 16:34 | 50.84217 | 11.23490 | 36274 ft | 404 kts | 305° |
| 2026-04-26 16:35 | 50.87555 | 11.16373 | 36280 ft | 405 kts | 305° |
| 2026-04-26 16:35 | 50.90911 | 11.09201 | 36282 ft | 405 kts | 305° |
| 2026-04-26 16:36 | 50.94272 | 11.02020 | 36284 ft | 405 kts | 305° |
| 2026-04-26 16:36 | 50.97627 | 10.94827 | 36285 ft | 405 kts | 305° |
| 2026-04-26 16:37 | 51.00976 | 10.87614 | 36282 ft | 406 kts | 305° |
| 2026-04-26 16:37 | 51.04324 | 10.80397 | 36284 ft | 406 kts | 305° |
| 2026-04-26 16:38 | 51.07669 | 10.73153 | 36279 ft | 406 kts | 305° |
| 2026-04-26 16:38 | 51.11007 | 10.65902 | 36285 ft | 406 kts | 305° |
| 2026-04-26 16:39 | 51.14340 | 10.58647 | 36282 ft | 406 kts | 305° |
| 2026-04-26 16:39 | 51.17670 | 10.51376 | 36277 ft | 406 kts | 305° |
| 2026-04-26 16:40 | 51.20993 | 10.44109 | 36267 ft | 406 kts | 305° |
| 2026-04-26 16:40 | 51.24316 | 10.36808 | 36271 ft | 406 kts | 305° |
| 2026-04-26 16:41 | 51.27656 | 10.29552 | 36268 ft | 406 kts | 306° |
| 2026-04-26 16:41 | 51.31055 | 10.22361 | 36273 ft | 406 kts | 306° |
| 2026-04-26 16:42 | 51.34466 | 10.15165 | 36266 ft | 406 kts | 306° |
| 2026-04-26 16:42 | 51.37830 | 10.07988 | 36276 ft | 406 kts | 306° |
| 2026-04-26 16:43 | 51.41195 | 10.00744 | 36277 ft | 405 kts | 306° |
| 2026-04-26 16:43 | 51.44578 | 9.93460 | 36278 ft | 404 kts | 306° |
| 2026-04-26 16:44 | 51.47932 | 9.86227 | 36274 ft | 404 kts | 306° |
| 2026-04-26 16:44 | 51.51285 | 9.78990 | 36274 ft | 404 kts | 306° |
| 2026-04-26 16:45 | 51.54626 | 9.71739 | 36275 ft | 404 kts | 305° |
| 2026-04-26 16:45 | 51.57960 | 9.64487 | 36274 ft | 403 kts | 306° |
| 2026-04-26 16:46 | 51.61292 | 9.57229 | 36278 ft | 403 kts | 306° |
| 2026-04-26 16:46 | 51.64609 | 9.49977 | 36279 ft | 402 kts | 306° |
| 2026-04-26 16:47 | 51.67898 | 9.42759 | 36294 ft | 402 kts | 306° |
| 2026-04-26 16:47 | 51.71198 | 9.35494 | 36295 ft | 401 kts | 306° |
| 2026-04-26 16:48 | 51.74487 | 9.28237 | 36287 ft | 400 kts | 306° |
| 2026-04-26 16:48 | 51.77764 | 9.20986 | 36283 ft | 400 kts | 306° |
| 2026-04-26 16:49 | 51.81042 | 9.13723 | 36278 ft | 400 kts | 305° |
| 2026-04-26 16:49 | 51.84310 | 9.06454 | 36274 ft | 399 kts | 305° |
| 2026-04-26 16:50 | 51.87571 | 8.99175 | 36272 ft | 399 kts | 305° |
| 2026-04-26 16:50 | 51.90831 | 8.91884 | 36271 ft | 399 kts | 305° |
| 2026-04-26 16:51 | 51.94077 | 8.84588 | 36269 ft | 399 kts | 305° |
| 2026-04-26 16:51 | 51.97305 | 8.77322 | 36279 ft | 399 kts | 305° |
| 2026-04-26 16:52 | 52.00020 | 8.71206 | 36279 ft | 398 kts | 305° |
| 2026-04-26 16:52 | 52.03773 | 8.62725 | 36281 ft | 398 kts | 305° |
| 2026-04-26 16:53 | 52.06995 | 8.55404 | 36279 ft | 398 kts | 305° |
| 2026-04-26 16:53 | 52.10211 | 8.48093 | 36277 ft | 397 kts | 305° |
| 2026-04-26 16:54 | 52.13425 | 8.40761 | 36277 ft | 397 kts | 305° |
| 2026-04-26 16:54 | 52.16627 | 8.33438 | 36266 ft | 397 kts | 306° |
| 2026-04-26 16:55 | 52.19824 | 8.26102 | 36280 ft | 396 kts | 306° |
| 2026-04-26 16:55 | 52.23008 | 8.18777 | 36287 ft | 396 kts | 305° |
| 2026-04-26 16:56 | 52.27770 | 8.07775 | 36300 ft | 395 kts | 305° |
| 2026-04-26 16:57 | 52.30941 | 8.00422 | 36300 ft | 395 kts | 305° |
| 2026-04-26 16:57 | 52.35651 | 7.89438 | 36281 ft | 394 kts | 305° |
| 2026-04-26 16:58 | 52.38289 | 7.83286 | 36286 ft | 394 kts | 305° |
| 2026-04-26 16:59 | 52.43511 | 7.71064 | 36282 ft | 393 kts | 305° |
| 2026-04-26 17:00 | 52.49755 | 7.56333 | 36273 ft | 393 kts | 305° |
| 2026-04-26 17:00 | 52.54427 | 7.45273 | 36289 ft | 393 kts | 305° |
| 2026-04-26 17:01 | 52.57533 | 7.37906 | 36292 ft | 392 kts | 305° |
| 2026-04-26 17:01 | 52.60641 | 7.30526 | 36294 ft | 392 kts | 304° |
| 2026-04-26 17:02 | 52.63730 | 7.23130 | 36294 ft | 392 kts | 304° |
| 2026-04-26 17:02 | 52.66602 | 7.15510 | 36292 ft | 393 kts | 295° |
| 2026-04-26 17:03 | 52.68506 | 7.07125 | 36288 ft | 393 kts | 291° |
| 2026-04-26 17:03 | 52.70387 | 6.98662 | 36277 ft | 393 kts | 291° |
| 2026-04-26 17:04 | 52.72269 | 6.90202 | 36283 ft | 393 kts | 291° |
| 2026-04-26 17:04 | 52.74141 | 6.81722 | 36292 ft | 393 kts | 291° |
| 2026-04-26 17:05 | 52.76003 | 6.73234 | 36285 ft | 393 kts | 291° |
| 2026-04-26 17:05 | 52.77858 | 6.64747 | 36303 ft | 393 kts | 291° |
| 2026-04-26 17:06 | 52.79713 | 6.56240 | 36302 ft | 393 kts | 291° |
| 2026-04-26 17:06 | 52.81551 | 6.47745 | 36298 ft | 393 kts | 291° |
| 2026-04-26 17:07 | 52.83391 | 6.39239 | 36302 ft | 393 kts | 291° |
| 2026-04-26 17:07 | 52.85225 | 6.30727 | 36324 ft | 393 kts | 290° |
| 2026-04-26 17:08 | 52.87045 | 6.22220 | 36317 ft | 392 kts | 290° |
| 2026-04-26 17:08 | 52.88862 | 6.13692 | 36314 ft | 392 kts | 290° |
| 2026-04-26 17:09 | 52.90056 | 6.08052 | 36312 ft | 392 kts | 290° |
| 2026-04-26 17:09 | 52.92164 | 5.98079 | 36319 ft | 392 kts | 290° |
| 2026-04-26 17:10 | 52.93967 | 5.89555 | 36320 ft | 392 kts | 290° |
| 2026-04-26 17:10 | 52.95758 | 5.81023 | 36325 ft | 392 kts | 290° |
| 2026-04-26 17:11 | 52.97545 | 5.72479 | 36330 ft | 392 kts | 290° |
| 2026-04-26 17:11 | 52.99321 | 5.63933 | 36332 ft | 392 kts | 290° |
| 2026-04-26 17:12 | 53.01964 | 5.51165 | 36310 ft | 391 kts | 290° |
| 2026-04-26 17:13 | 53.04607 | 5.38325 | 36320 ft | 391 kts | 290° |
| 2026-04-26 17:14 | 53.07237 | 5.25480 | 36332 ft | 391 kts | 289° |
| 2026-04-26 17:14 | 53.09844 | 5.12618 | 36339 ft | 391 kts | 289° |
| 2026-04-26 17:15 | 53.12437 | 4.99739 | 36338 ft | 391 kts | 289° |
| 2026-04-26 17:16 | 53.14163 | 4.91138 | 36340 ft | 391 kts | 289° |
| 2026-04-26 17:16 | 53.15867 | 4.82600 | 36366 ft | 391 kts | 289° |
| 2026-04-26 17:17 | 53.17574 | 4.73998 | 36358 ft | 391 kts | 289° |
| 2026-04-26 17:17 | 53.19278 | 4.65401 | 36351 ft | 391 kts | 289° |
| 2026-04-26 17:18 | 53.20975 | 4.56798 | 36347 ft | 390 kts | 289° |
| 2026-04-26 17:18 | 53.22662 | 4.48181 | 36345 ft | 390 kts | 289° |
| 2026-04-26 17:19 | 53.25185 | 4.35245 | 36346 ft | 390 kts | 289° |
| 2026-04-26 17:19 | 53.26865 | 4.26616 | 36342 ft | 390 kts | 289° |
| 2026-04-26 17:20 | 53.28258 | 4.19446 | 36344 ft | 390 kts | 289° |
| 2026-04-26 17:20 | 53.30199 | 4.09349 | 36322 ft | 390 kts | 288° |
| 2026-04-26 17:21 | 53.31835 | 4.00762 | 36330 ft | 390 kts | 288° |
| 2026-04-26 17:21 | 53.33480 | 3.92104 | 36334 ft | 390 kts | 288° |
| 2026-04-26 17:22 | 53.35123 | 3.83441 | 36343 ft | 390 kts | 288° |
| 2026-04-26 17:22 | 53.36759 | 3.74790 | 36345 ft | 390 kts | 288° |
| 2026-04-26 17:23 | 53.38390 | 3.66136 | 36356 ft | 390 kts | 288° |
| 2026-04-26 17:23 | 53.40065 | 3.57494 | 36347 ft | 390 kts | 292° |
| 2026-04-26 17:24 | 53.42760 | 3.49633 | 36343 ft | 390 kts | 302° |
| 2026-04-26 17:24 | 53.45718 | 3.41999 | 36344 ft | 390 kts | 302° |
| 2026-04-26 17:25 | 53.48662 | 3.34350 | 36350 ft | 390 kts | 302° |
| 2026-04-26 17:25 | 53.51604 | 3.26686 | 36343 ft | 390 kts | 302° |
| 2026-04-26 17:26 | 53.54534 | 3.19008 | 36343 ft | 390 kts | 302° |
| 2026-04-26 17:26 | 53.57461 | 3.11306 | 36344 ft | 390 kts | 302° |
| 2026-04-26 17:27 | 53.60383 | 3.03604 | 36320 ft | 390 kts | 301° |
| 2026-04-26 17:27 | 53.63304 | 2.95888 | 36322 ft | 391 kts | 301° |
| 2026-04-26 17:28 | 53.66207 | 2.88212 | 36325 ft | 391 kts | 301° |
| 2026-04-26 17:28 | 53.69117 | 2.80466 | 36327 ft | 391 kts | 301° |
| 2026-04-26 17:29 | 53.71555 | 2.73953 | 36352 ft | 391 kts | 301° |
| 2026-04-26 17:29 | 53.74932 | 2.64926 | 36347 ft | 391 kts | 301° |
| 2026-04-26 17:30 | 53.77823 | 2.57167 | 36338 ft | 390 kts | 300° |
| 2026-04-26 17:30 | 53.80706 | 2.49386 | 36333 ft | 390 kts | 300° |
| 2026-04-26 17:31 | 53.83592 | 2.41601 | 36334 ft | 390 kts | 300° |
| 2026-04-26 17:31 | 53.86465 | 2.33806 | 36333 ft | 390 kts | 300° |
| 2026-04-26 17:32 | 53.89334 | 2.25997 | 36331 ft | 390 kts | 300° |
| 2026-04-26 17:32 | 53.92200 | 2.18178 | 36330 ft | 390 kts | 300° |
| 2026-04-26 17:33 | 53.95065 | 2.10354 | 36330 ft | 390 kts | 300° |
| 2026-04-26 17:34 | 53.99329 | 1.98625 | 36334 ft | 391 kts | 300° |
| 2026-04-26 17:34 | 54.02169 | 1.90753 | 36332 ft | 390 kts | 299° |
| 2026-04-26 17:35 | 54.05014 | 1.82872 | 36329 ft | 390 kts | 299° |
| 2026-04-26 17:35 | 54.07854 | 1.74998 | 36327 ft | 390 kts | 299° |
| 2026-04-26 17:36 | 54.10692 | 1.67111 | 36320 ft | 390 kts | 299° |
| 2026-04-26 17:36 | 54.13523 | 1.59199 | 36322 ft | 390 kts | 299° |
| 2026-04-26 17:37 | 54.16343 | 1.51284 | 36316 ft | 391 kts | 299° |
| 2026-04-26 17:37 | 54.19075 | 1.43254 | 36309 ft | 389 kts | 293° |
| 2026-04-26 17:38 | 54.22486 | 1.30718 | 36311 ft | 390 kts | 293° |
| 2026-04-26 17:38 | 54.24774 | 1.22304 | 36329 ft | 390 kts | 292° |
| 2026-04-26 17:39 | 54.27047 | 1.13904 | 36334 ft | 389 kts | 292° |
| 2026-04-26 17:39 | 54.29315 | 1.05492 | 36323 ft | 389 kts | 292° |
| 2026-04-26 17:40 | 54.30827 | 0.99867 | 36320 ft | 389 kts | 292° |
| 2026-04-26 17:40 | 54.33836 | 0.88642 | 36314 ft | 389 kts | 292° |
| 2026-04-26 17:41 | 54.36083 | 0.80213 | 36308 ft | 389 kts | 292° |
| 2026-04-26 17:41 | 54.38329 | 0.71759 | 36308 ft | 389 kts | 292° |
| 2026-04-26 17:42 | 54.40567 | 0.63308 | 36303 ft | 389 kts | 292° |
| 2026-04-26 17:42 | 54.42795 | 0.54844 | 36304 ft | 389 kts | 292° |
| 2026-04-26 17:43 | 54.45024 | 0.46373 | 36302 ft | 389 kts | 291° |
| 2026-04-26 17:43 | 54.47249 | 0.37868 | 36290 ft | 390 kts | 291° |
| 2026-04-26 17:44 | 54.49472 | 0.29362 | 36290 ft | 390 kts | 291° |
| 2026-04-26 17:44 | 54.51685 | 0.20847 | 36305 ft | 390 kts | 291° |
| 2026-04-26 17:45 | 54.53887 | 0.12316 | 36305 ft | 390 kts | 291° |
| 2026-04-26 17:45 | 54.56086 | 0.03786 | 36303 ft | 390 kts | 291° |
| 2026-04-26 17:46 | 54.58280 | -0.04763 | 36293 ft | 390 kts | 290° |
| 2026-04-26 17:46 | 54.60466 | -0.13317 | 36287 ft | 390 kts | 290° |
| 2026-04-26 17:47 | 54.61926 | -0.19047 | 36283 ft | 390 kts | 290° |
| 2026-04-26 17:47 | 54.64828 | -0.30465 | 36282 ft | 390 kts | 290° |
| 2026-04-26 17:48 | 54.66998 | -0.39057 | 36279 ft | 390 kts | 290° |
| 2026-04-26 17:48 | 54.69163 | -0.47660 | 36277 ft | 390 kts | 290° |
| 2026-04-26 17:49 | 54.71321 | -0.56270 | 36275 ft | 390 kts | 290° |
| 2026-04-26 17:49 | 54.73475 | -0.64902 | 36267 ft | 390 kts | 290° |
| 2026-04-26 17:50 | 54.75769 | -0.73432 | 36289 ft | 392 kts | 293° |
| 2026-04-26 17:50 | 54.78296 | -0.81785 | 36288 ft | 391 kts | 294° |
| 2026-04-26 17:51 | 54.80826 | -0.90127 | 36278 ft | 391 kts | 294° |
| 2026-04-26 17:51 | 54.83308 | -0.98507 | 36275 ft | 390 kts | 293° |
| 2026-04-26 17:52 | 54.85753 | -1.06911 | 36276 ft | 390 kts | 293° |
| 2026-04-26 17:52 | 54.88194 | -1.15336 | 36231 ft | 392 kts | 293° |
| 2026-04-26 17:53 | 54.90241 | -1.22389 | 36236 ft | 394 kts | 293° |
| 2026-04-26 17:54 | 54.93913 | -1.35094 | 35134 ft | 384 kts | 292° |
| 2026-04-26 17:54 | 54.95098 | -1.39199 | 34428 ft | 376 kts | 292° |
| 2026-04-26 17:54 | 54.96260 | -1.43232 | 33655 ft | 369 kts | 292° |
| 2026-04-26 17:54 | 54.97398 | -1.47190 | 32812 ft | 363 kts | 292° |
| 2026-04-26 17:55 | 54.98519 | -1.51107 | 31948 ft | 359 kts | 292° |
| 2026-04-26 17:55 | 54.99622 | -1.54974 | 31099 ft | 356 kts | 292° |
| 2026-04-26 17:55 | 55.00718 | -1.58825 | 30285 ft | 352 kts | 291° |
| 2026-04-26 17:55 | 55.01796 | -1.62629 | 29354 ft | 349 kts | 292° |
| 2026-04-26 17:56 | 55.02871 | -1.66422 | 28694 ft | 349 kts | 292° |
| 2026-04-26 17:56 | 55.05095 | -1.73924 | 27646 ft | 347 kts | 295° |
| 2026-04-26 17:57 | 55.07533 | -1.81156 | 26648 ft | 344 kts | 297° |
| 2026-04-26 17:57 | 55.08761 | -1.84729 | 26310 ft | 342 kts | 297° |
| 2026-04-26 17:57 | 55.09975 | -1.88297 | 26240 ft | 343 kts | 297° |
| 2026-04-26 17:57 | 55.11189 | -1.91908 | 26258 ft | 344 kts | 296° |
| 2026-04-26 17:58 | 55.14802 | -2.02802 | 25168 ft | 349 kts | 297° |
| 2026-04-26 17:59 | 55.17218 | -2.10143 | 24170 ft | 347 kts | 297° |
| 2026-04-26 17:59 | 55.18417 | -2.13803 | 23645 ft | 347 kts | 297° |
| 2026-04-26 17:59 | 55.19613 | -2.17456 | 23115 ft | 345 kts | 297° |
| 2026-04-26 17:59 | 55.20816 | -2.21131 | 22625 ft | 342 kts | 298° |
| 2026-04-26 18:00 | 55.21980 | -2.24693 | 22130 ft | 341 kts | 298° |
| 2026-04-26 18:00 | 55.23153 | -2.28284 | 21655 ft | 339 kts | 298° |
| 2026-04-26 18:00 | 55.24335 | -2.31905 | 21183 ft | 338 kts | 298° |
| 2026-04-26 18:00 | 55.25483 | -2.35428 | 20692 ft | 337 kts | 297° |
| 2026-04-26 18:01 | 55.26641 | -2.38992 | 20209 ft | 336 kts | 298° |
| 2026-04-26 18:01 | 55.27800 | -2.42560 | 19725 ft | 336 kts | 298° |
| 2026-04-26 18:01 | 55.28954 | -2.46109 | 19248 ft | 335 kts | 298° |
| 2026-04-26 18:01 | 55.30106 | -2.49664 | 18770 ft | 335 kts | 298° |
| 2026-04-26 18:02 | 55.31259 | -2.53223 | 18330 ft | 332 kts | 298° |
| 2026-04-26 18:02 | 55.32028 | -2.55602 | 17950 ft | 333 kts | 298° |
| 2026-04-26 18:02 | 55.33530 | -2.60261 | 17342 ft | 330 kts | 297° |
| 2026-04-26 18:02 | 55.34654 | -2.63755 | 16918 ft | 327 kts | 297° |
| 2026-04-26 18:03 | 55.35772 | -2.67238 | 16512 ft | 325 kts | 297° |
| 2026-04-26 18:03 | 55.36882 | -2.70702 | 16023 ft | 325 kts | 297° |
| 2026-04-26 18:03 | 55.37981 | -2.74129 | 15628 ft | 319 kts | 297° |
| 2026-04-26 18:03 | 55.39067 | -2.77521 | 15001 ft | 316 kts | 297° |
| 2026-04-26 18:04 | 55.40120 | -2.80812 | 14539 ft | 309 kts | 297° |
| 2026-04-26 18:04 | 55.41159 | -2.84066 | 14089 ft | 302 kts | 297° |
| 2026-04-26 18:04 | 55.42185 | -2.87291 | 13624 ft | 295 kts | 297° |
| 2026-04-26 18:05 | 55.44145 | -2.93452 | 12792 ft | 287 kts | 296° |
| 2026-04-26 18:05 | 55.45155 | -2.96485 | 12385 ft | 288 kts | 302° |
| 2026-04-26 18:05 | 55.46539 | -2.99057 | 11971 ft | 293 kts | 319° |
| 2026-04-26 18:05 | 55.48326 | -3.00852 | 11517 ft | 300 kts | 335° |
| 2026-04-26 18:06 | 55.50320 | -3.01954 | 11236 ft | 298 kts | 339° |
| 2026-04-26 18:06 | 55.52314 | -3.03041 | 10813 ft | 299 kts | 339° |
| 2026-04-26 18:06 | 55.54279 | -3.04127 | 10416 ft | 294 kts | 339° |
| 2026-04-26 18:06 | 55.56228 | -3.05211 | 9851 ft | 294 kts | 338° |
| 2026-04-26 18:07 | 55.58169 | -3.06293 | 9321 ft | 291 kts | 339° |
| 2026-04-26 18:07 | 55.60080 | -3.07357 | 8879 ft | 286 kts | 339° |
| 2026-04-26 18:07 | 55.61975 | -3.08414 | 8459 ft | 284 kts | 339° |
| 2026-04-26 18:07 | 55.63204 | -3.09098 | 8293 ft | 273 kts | 339° |
| 2026-04-26 18:08 | 55.65550 | -3.10397 | 7791 ft | 259 kts | 339° |
| 2026-04-26 18:08 | 55.67268 | -3.11357 | 7491 ft | 256 kts | 339° |
| 2026-04-26 18:08 | 55.68962 | -3.12342 | 7382 ft | 256 kts | 333° |
| 2026-04-26 18:08 | 55.70335 | -3.14203 | 7257 ft | 246 kts | 301° |
| 2026-04-26 18:09 | 55.70916 | -3.16969 | 7133 ft | 239 kts | 271° |
| 2026-04-26 18:09 | 55.70653 | -3.19840 | 7017 ft | 238 kts | 251° |
| 2026-04-26 18:09 | 55.70147 | -3.22609 | 6875 ft | 232 kts | 251° |
| 2026-04-26 18:09 | 55.69660 | -3.25263 | 6764 ft | 221 kts | 251° |
| 2026-04-26 18:10 | 55.69192 | -3.27825 | 6641 ft | 217 kts | 251° |
| 2026-04-26 18:10 | 55.68736 | -3.30333 | 6508 ft | 216 kts | 251° |
| 2026-04-26 18:10 | 55.68276 | -3.32864 | 6383 ft | 216 kts | 251° |
| 2026-04-26 18:10 | 55.67816 | -3.35397 | 6253 ft | 216 kts | 251° |
| 2026-04-26 18:11 | 55.67356 | -3.37922 | 6130 ft | 215 kts | 251° |
| 2026-04-26 18:11 | 55.66896 | -3.40444 | 6033 ft | 216 kts | 251° |
| 2026-04-26 18:11 | 55.66433 | -3.42973 | 6011 ft | 216 kts | 251° |
| 2026-04-26 18:11 | 55.65969 | -3.45498 | 6009 ft | 216 kts | 251° |
| 2026-04-26 18:12 | 55.65502 | -3.48034 | 6006 ft | 217 kts | 251° |
| 2026-04-26 18:12 | 55.65036 | -3.50574 | 6014 ft | 217 kts | 251° |
| 2026-04-26 18:12 | 55.64573 | -3.53109 | 6012 ft | 216 kts | 251° |
| 2026-04-26 18:12 | 55.64113 | -3.55642 | 5913 ft | 215 kts | 253° |
| 2026-04-26 18:13 | 55.64052 | -3.58259 | 5596 ft | 216 kts | 284° |
| 2026-04-26 18:13 | 55.64854 | -3.60478 | 5295 ft | 220 kts | 319° |
| 2026-04-26 18:13 | 55.66259 | -3.61543 | 4967 ft | 224 kts | 346° |
| 2026-04-26 18:13 | 55.67267 | -3.61968 | 4719 ft | 224 kts | 339° |
| 2026-04-26 18:14 | 55.69012 | -3.63826 | 4316 ft | 218 kts | 317° |
| 2026-04-26 18:14 | 55.70180 | -3.65534 | 4060 ft | 216 kts | 318° |
| 2026-04-26 18:14 | 55.71325 | -3.67166 | 4004 ft | 206 kts | 319° |
| 2026-04-26 18:14 | 55.72418 | -3.68718 | 4005 ft | 195 kts | 318° |
| 2026-04-26 18:15 | 55.73451 | -3.70192 | 4006 ft | 189 kts | 317° |
| 2026-04-26 18:15 | 55.74473 | -3.71660 | 4009 ft | 189 kts | 317° |
| 2026-04-26 18:15 | 55.75492 | -3.73138 | 4010 ft | 189 kts | 315° |
| 2026-04-26 18:15 | 55.76446 | -3.74727 | 4011 ft | 188 kts | 312° |
| 2026-04-26 18:16 | 55.77449 | -3.76222 | 4008 ft | 190 kts | 327° |
| 2026-04-26 18:16 | 55.80028 | -3.77033 | 4005 ft | 198 kts | 9° |
| 2026-04-26 18:16 | 55.81313 | -3.76115 | 4010 ft | 202 kts | 32° |
| 2026-04-26 18:17 | 55.82311 | -3.74357 | 4011 ft | 203 kts | 57° |
| 2026-04-26 18:17 | 55.83046 | -3.72221 | 4012 ft | 203 kts | 58° |
| 2026-04-26 18:17 | 55.83785 | -3.70072 | 4008 ft | 203 kts | 58° |
| 2026-04-26 18:17 | 55.84527 | -3.67917 | 3882 ft | 205 kts | 58° |
| 2026-04-26 18:18 | 55.85261 | -3.65778 | 3650 ft | 200 kts | 58° |
| 2026-04-26 18:18 | 55.85973 | -3.63705 | 3389 ft | 190 kts | 58° |
| 2026-04-26 18:18 | 55.86648 | -3.61735 | 3124 ft | 184 kts | 58° |
| 2026-04-26 18:18 | 55.87306 | -3.59815 | 2885 ft | 180 kts | 58° |
| 2026-04-26 18:19 | 55.87953 | -3.57924 | 2636 ft | 178 kts | 57° |
| 2026-04-26 18:19 | 55.88597 | -3.56044 | 2401 ft | 177 kts | 57° |
| 2026-04-26 18:19 | 55.89238 | -3.54168 | 2161 ft | 177 kts | 57° |
| 2026-04-26 18:19 | 55.89876 | -3.52299 | 1918 ft | 176 kts | 56° |
| 2026-04-26 18:20 | 55.90504 | -3.50460 | 1671 ft | 170 kts | 57° |
| 2026-04-26 18:20 | 55.91101 | -3.48697 | 1434 ft | 162 kts | 57° |
| 2026-04-26 18:20 | 55.91675 | -3.46993 | 1192 ft | 159 kts | 56° |
| 2026-04-26 18:20 | 55.91870 | -3.46434 | 1136 ft | 156 kts | 56° |
| 2026-04-26 18:21 | 55.92807 | -3.43745 | 801 ft | 149 kts | 58° |
| 2026-04-26 18:21 | 55.93328 | -3.42175 | 585 ft | 145 kts | 58° |
| 2026-04-26 18:21 | 55.93840 | -3.40667 | 404 ft | 141 kts | 58° |
| 2026-04-26 18:21 | 55.94346 | -3.39186 | 225 ft | 138 kts | 59° |
| 2026-04-26 18:22 | 55.94834 | -3.37760 | 113 ft | 114 kts | 58° |
| 2026-04-26 18:22 | 55.95086 | -3.36998 | 114 ft | 39 kts | 59° |
| 2026-04-26 18:22 | 55.95217 | -3.36606 | 113 ft | 31 kts | 59° |
| 2026-04-26 18:22 | 55.95251 | -3.36423 | 111 ft | 12 kts | 117° |
| 2026-04-26 18:23 | 55.95203 | -3.36361 | 114 ft | 5 kts | 149° |
| 2026-04-26 18:23 | 55.95179 | -3.36336 | 115 ft | 3 kts | 151° |
| 2026-04-26 18:23 | 55.95167 | -3.36325 | 113 ft | 2 kts | 152° |
| 2026-04-26 18:23 | 55.95141 | -3.36311 | 116 ft | 6 kts | 175° |
| 2026-04-26 18:24 | 55.95101 | -3.36370 | 114 ft | 8 kts | 236° |
| 2026-04-26 18:24 | 55.95057 | -3.36387 | 116 ft | 7 kts | 160° |
| 2026-04-26 18:24 | 55.95019 | -3.36398 | 113 ft | 5 kts | 214° |
| 2026-04-26 18:24 | 55.94998 | -3.36447 | 115 ft | 5 kts | 237° |
| 2026-04-26 18:25 | 55.94981 | -3.36495 | 114 ft | 5 kts | 239° |
| 2026-04-26 18:25 | 55.94959 | -3.36559 | 112 ft | 6 kts | 239° |
| 2026-04-26 18:25 | 55.94934 | -3.36603 | 114 ft | 4 kts | 192° |
| 2026-04-26 18:25 | 55.94910 | -3.36580 | 113 ft | 4 kts | 146° |
| 2026-04-26 18:26 | 55.94891 | -3.36559 | 114 ft | 3 kts | 148° |
| 2026-04-26 18:26 | 55.94882 | -3.36549 | 113 ft | 0 kts | 148° |
| 2026-04-26 18:27 | 55.94882 | -3.36550 | 113 ft | 0 kts | 148° |
| 2026-04-26 18:30 | 55.94883 | -3.36550 | 115 ft | 0 kts | 148° |